Time;durP1;ratioP1;P1;durP2;ratioP2;P2;SDS_P1;SDS_P2;PMS_P1;PMS_P2;Temp;Humidity;BMP_temperature;BMP_pressure;BME280_temperature;BME280_humidity;BME280_pressure;Samples;Min_cycle;Max_cycle;Signal;HPM_P1;HPM_P2
2023/08/13 00:01:11;;;;;;;3.75;1.40;;;;;;;;;;5076620;28;20029;-72
2023/08/13 00:03:36;;;;;;;3.00;1.38;;;;;;;;;;5076754;28;20467;-73
2023/08/13 00:06:02;;;;;;;2.17;1.35;;;;;;;;;;5076676;28;20154;-73
2023/08/13 00:08:27;;;;;;;2.40;1.30;;;;;;;;;;5076710;28;20044;-73
2023/08/13 00:10:52;;;;;;;2.23;1.67;;;;;;;;;;5076516;28;20078;-72
2023/08/13 00:13:18;;;;;;;2.33;1.40;;;;;;;;;;5076603;28;20280;-73
2023/08/13 00:15:43;;;;;;;4.60;1.60;;;;;;;;;;5076481;28;20329;-73
2023/08/13 00:18:10;;;;;;;4.53;1.80;;;;;;;;;;5059142;28;20047;-73
2023/08/13 00:20:35;;;;;;;2.15;1.38;;;;;;;;;;5076926;28;20265;-73
2023/08/13 00:23:01;;;;;;;3.28;1.63;;;;;;;;;;5076251;28;20025;-73
2023/08/13 00:25:26;;;;;;;1.63;1.30;;;;;;;;;;5058339;28;20028;-72
2023/08/13 00:27:51;;;;;;;4.28;1.33;;;;;;;;;;5058726;28;20025;-73
2023/08/13 00:30:17;;;;;;;2.73;1.73;;;;;;;;;;5076564;28;20460;-72
2023/08/13 00:32:43;;;;;;;1.85;1.40;;;;;;;;;;5075881;28;20259;-71
2023/08/13 00:35:08;;;;;;;3.38;1.60;;;;;;;;;;5075894;28;20115;-73
2023/08/13 00:37:35;;;;;;;2.55;1.55;;;;;;;;;;5075879;28;20376;-73
2023/08/13 00:40:00;;;;;;;4.10;1.50;;;;;;;;;;5058044;28;20024;-73
2023/08/13 00:42:26;;;;;;;4.15;1.63;;;;;;;;;;5075186;28;20043;-72
2023/08/13 00:44:51;;;;;;;3.00;1.50;;;;;;;;;;5057902;28;20027;-73
2023/08/13 00:47:16;;;;;;;5.30;1.70;;;;;;;;;;5075729;28;20257;-73
2023/08/13 00:49:42;;;;;;;6.15;1.67;;;;;;;;;;5075699;28;20028;-72
2023/08/13 00:52:07;;;;;;;3.00;1.55;;;;;;;;;;5057643;28;20107;-73
2023/08/13 00:54:33;;;;;;;2.95;1.45;;;;;;;;;;5075480;28;20016;-73
2023/08/13 00:56:59;;;;;;;2.55;1.48;;;;;;;;;;5075280;28;20029;-73
2023/08/13 00:59:25;;;;;;;4.15;1.50;;;;;;;;;;5075848;28;20029;-73
2023/08/13 01:01:50;;;;;;;3.42;1.70;;;;;;;;;;5075619;28;20596;-73
2023/08/13 01:04:15;;;;;;;2.92;1.58;;;;;;;;;;5057203;28;20024;-73
2023/08/13 01:07:17;;;;;;;3.00;1.60;;;;;;;;;;5075289;28;20471;-73
2023/08/13 01:09:56;;;;;;;3.58;1.48;;;;;;;;;;5024203;28;20257;-73
2023/08/13 01:12:26;;;;;;;3.78;1.60;;;;;;;;;;5075253;28;20020;-73
2023/08/13 01:15:02;;;;;;;2.20;1.52;;;;;;;;;;5074868;28;20029;-73
2023/08/13 01:17:28;;;;;;;4.07;1.88;;;;;;;;;;5075116;28;20020;-73
2023/08/13 01:19:54;;;;;;;4.10;1.38;;;;;;;;;;5075211;28;20111;-73
2023/08/13 01:22:26;;;;;;;3.93;1.70;;;;;;;;;;5074913;28;20114;-73
2023/08/13 01:24:51;;;;;;;1.77;1.38;;;;;;;;;;5075083;28;20276;-73
2023/08/13 01:27:25;;;;;;;3.35;1.80;;;;;;;;;;5075252;28;20021;-73
2023/08/13 01:30:12;;;;;;;4.10;1.60;;;;;;;;;;5075112;28;20131;-73
2023/08/13 01:32:46;;;;;;;4.88;1.88;;;;;;;;;;5074896;28;20021;-72
2023/08/13 01:35:13;;;;;;;2.15;1.40;;;;;;;;;;5057792;28;20052;-70
2023/08/13 01:37:39;;;;;;;2.38;1.50;;;;;;;;;;5075212;28;20416;-72
2023/08/13 01:40:06;;;;;;;3.40;1.60;;;;;;;;;;5056584;28;20063;-72
2023/08/13 01:42:33;;;;;;;3.30;1.80;;;;;;;;;;5074651;28;20103;-72
2023/08/13 01:44:58;;;;;;;4.47;1.80;;;;;;;;;;5056470;28;20024;-72
2023/08/13 01:47:23;;;;;;;3.15;1.65;;;;;;;;;;5074488;28;20081;-72
2023/08/13 01:49:49;;;;;;;4.57;1.92;;;;;;;;;;5074979;28;20467;-72
2023/08/13 01:52:14;;;;;;;3.30;1.52;;;;;;;;;;5056480;28;20051;-72
2023/08/13 01:54:39;;;;;;;2.28;1.50;;;;;;;;;;5074293;28;20048;-72
2023/08/13 01:57:04;;;;;;;3.43;1.57;;;;;;;;;;5074159;28;20032;-72
2023/08/13 01:59:30;;;;;;;4.97;1.80;;;;;;;;;;5074305;28;20261;-72
2023/08/13 02:01:55;;;;;;;2.27;1.50;;;;;;;;;;5074181;28;20030;-73
2023/08/13 02:04:20;;;;;;;3.88;1.70;;;;;;;;;;5074057;28;20809;-74
2023/08/13 02:06:45;;;;;;;4.00;1.77;;;;;;;;;;5074272;28;20012;-74
2023/08/13 02:09:11;;;;;;;2.50;1.60;;;;;;;;;;5074035;28;20051;-74
2023/08/13 02:11:36;;;;;;;2.20;1.60;;;;;;;;;;5074002;28;20258;-71
2023/08/13 02:14:01;;;;;;;2.63;1.47;;;;;;;;;;5073886;28;20304;-72
2023/08/13 02:16:26;;;;;;;4.40;1.70;;;;;;;;;;5072933;28;20342;-73
2023/08/13 02:18:52;;;;;;;2.90;1.53;;;;;;;;;;5054547;28;20737;-72
2023/08/13 02:21:18;;;;;;;5.03;1.67;;;;;;;;;;5072682;28;20271;-69
2023/08/13 02:23:43;;;;;;;2.90;1.50;;;;;;;;;;5073379;28;20056;-72
2023/08/13 02:26:08;;;;;;;3.95;1.70;;;;;;;;;;5072485;28;20021;-73
2023/08/13 02:28:34;;;;;;;1.95;1.30;;;;;;;;;;5072819;28;20491;-72
2023/08/13 02:30:59;;;;;;;5.43;1.90;;;;;;;;;;5073561;28;20020;-73
2023/08/13 02:33:24;;;;;;;2.10;1.50;;;;;;;;;;5055563;28;20262;-72
2023/08/13 02:35:49;;;;;;;8.17;1.83;;;;;;;;;;5073435;28;20392;-74
2023/08/13 02:38:15;;;;;;;2.78;1.77;;;;;;;;;;5073656;28;20365;-74
2023/08/13 02:40:40;;;;;;;3.53;1.60;;;;;;;;;;5055520;28;20016;-74
2023/08/13 02:43:05;;;;;;;2.57;1.70;;;;;;;;;;5073631;28;20020;-73
2023/08/13 02:45:30;;;;;;;2.47;1.70;;;;;;;;;;5073400;28;20253;-74
2023/08/13 02:47:57;;;;;;;4.40;1.73;;;;;;;;;;5073428;28;20032;-71
2023/08/13 02:50:22;;;;;;;2.30;1.42;;;;;;;;;;5073280;28;20506;-74
2023/08/13 02:52:48;;;;;;;3.28;1.60;;;;;;;;;;5073447;28;20041;-73
2023/08/13 02:55:13;;;;;;;7.35;1.70;;;;;;;;;;5073439;28;20028;-74
2023/08/13 02:57:38;;;;;;;2.50;1.70;;;;;;;;;;5073282;28;20032;-72
2023/08/13 03:00:04;;;;;;;2.58;1.60;;;;;;;;;;5073554;28;20020;-73
2023/08/13 03:02:30;;;;;;;3.63;1.70;;;;;;;;;;5073271;28;20024;-73
2023/08/13 03:04:56;;;;;;;4.90;1.67;;;;;;;;;;5072787;28;20065;-73
2023/08/13 03:07:22;;;;;;;6.43;1.98;;;;;;;;;;5073205;28;20349;-72
2023/08/13 03:09:47;;;;;;;1.98;1.65;;;;;;;;;;5055257;28;20545;-74
2023/08/13 03:12:12;;;;;;;4.03;1.80;;;;;;;;;;5073503;28;20024;-73
2023/08/13 03:14:38;;;;;;;3.43;1.50;;;;;;;;;;5073058;28;20309;-73
2023/08/13 03:17:03;;;;;;;3.05;1.55;;;;;;;;;;5072877;28;20320;-73
2023/08/13 03:19:28;;;;;;;4.05;1.90;;;;;;;;;;5073187;28;20484;-73
2023/08/13 03:21:53;;;;;;;3.30;2.00;;;;;;;;;;5073147;28;20024;-73
2023/08/13 03:24:19;;;;;;;5.22;1.70;;;;;;;;;;5072988;28;20287;-73
2023/08/13 03:26:44;;;;;;;2.53;1.50;;;;;;;;;;5073247;28;20502;-73
2023/08/13 03:29:09;;;;;;;2.90;1.67;;;;;;;;;;5073624;28;20078;-73
2023/08/13 03:31:34;;;;;;;2.88;1.60;;;;;;;;;;5072951;28;20257;-73
2023/08/13 03:34:00;;;;;;;2.87;1.50;;;;;;;;;;5072180;28;20027;-74
2023/08/13 03:36:25;;;;;;;2.38;1.70;;;;;;;;;;5053648;28;20273;-74
2023/08/13 03:38:50;;;;;;;4.32;1.85;;;;;;;;;;5071683;28;20024;-73
2023/08/13 03:41:15;;;;;;;2.27;1.60;;;;;;;;;;5054730;28;20052;-71
2023/08/13 03:43:41;;;;;;;2.30;1.70;;;;;;;;;;5071167;28;20355;-74
2023/08/13 03:46:06;;;;;;;2.10;1.55;;;;;;;;;;5072674;28;20671;-71
2023/08/13 03:48:32;;;;;;;3.60;1.83;;;;;;;;;;5071862;28;20022;-72
2023/08/13 03:50:57;;;;;;;3.42;1.95;;;;;;;;;;5072606;28;20663;-72
2023/08/13 03:53:24;;;;;;;4.10;1.43;;;;;;;;;;5072611;28;20024;-72
2023/08/13 03:55:50;;;;;;;3.55;1.80;;;;;;;;;;5072505;28;20281;-72
2023/08/13 03:58:16;;;;;;;2.60;1.80;;;;;;;;;;5072544;28;20078;-72
2023/08/13 04:00:41;;;;;;;2.17;1.65;;;;;;;;;;5072525;28;20043;-72
2023/08/13 04:03:08;;;;;;;6.83;1.70;;;;;;;;;;5054511;28;20025;-72
2023/08/13 04:05:33;;;;;;;3.33;1.58;;;;;;;;;;5072399;28;20346;-73
2023/08/13 04:07:59;;;;;;;5.70;1.63;;;;;;;;;;5072417;28;20059;-73
2023/08/13 04:10:24;;;;;;;4.20;1.60;;;;;;;;;;5072372;28;20024;-74
2023/08/13 04:12:49;;;;;;;3.78;1.80;;;;;;;;;;5072284;28;20265;-74
2023/08/13 04:15:15;;;;;;;4.03;2.03;;;;;;;;;;5072287;28;20539;-74
2023/08/13 04:17:40;;;;;;;3.75;1.90;;;;;;;;;;5073681;28;20033;-74
2023/08/13 04:20:06;;;;;;;3.60;1.75;;;;;;;;;;5076150;28;20433;-73
2023/08/13 04:22:31;;;;;;;3.53;1.88;;;;;;;;;;5075900;28;20127;-74
2023/08/13 04:24:56;;;;;;;4.25;2.03;;;;;;;;;;5075915;28;20031;-73
2023/08/13 04:27:21;;;;;;;4.15;2.20;;;;;;;;;;5076022;28;20024;-74
2023/08/13 04:29:47;;;;;;;4.40;1.70;;;;;;;;;;5075886;28;20484;-73
2023/08/13 04:32:12;;;;;;;4.13;1.70;;;;;;;;;;5075875;28;20696;-73
2023/08/13 04:34:37;;;;;;;5.85;1.90;;;;;;;;;;5076065;28;20440;-73
2023/08/13 04:37:03;;;;;;;4.27;1.90;;;;;;;;;;5057810;28;20028;-73
2023/08/13 04:39:28;;;;;;;3.83;2.00;;;;;;;;;;5057789;28;20265;-73
2023/08/13 04:41:58;;;;;;;3.15;1.90;;;;;;;;;;5075735;28;20024;-72
2023/08/13 04:44:24;;;;;;;3.15;1.90;;;;;;;;;;5075636;28;20024;-73
2023/08/13 04:46:49;;;;;;;2.77;1.90;;;;;;;;;;5075725;28;20170;-74
2023/08/13 04:49:14;;;;;;;3.73;1.73;;;;;;;;;;5057750;28;20261;-73
2023/08/13 04:51:39;;;;;;;3.13;1.53;;;;;;;;;;5075384;28;20272;-73
2023/08/13 04:54:05;;;;;;;2.78;1.80;;;;;;;;;;5075469;28;20255;-73
2023/08/13 04:56:30;;;;;;;4.57;1.85;;;;;;;;;;5075491;28;20093;-74
2023/08/13 04:58:55;;;;;;;6.00;1.87;;;;;;;;;;5075765;28;20111;-73
2023/08/13 05:01:21;;;;;;;5.22;1.70;;;;;;;;;;5075306;28;20261;-74
2023/08/13 05:03:46;;;;;;;3.20;2.00;;;;;;;;;;5075282;28;20078;-74
2023/08/13 05:06:11;;;;;;;2.70;1.60;;;;;;;;;;5075260;28;20732;-74
2023/08/13 05:08:37;;;;;;;7.00;2.03;;;;;;;;;;5075075;28;20029;-74
2023/08/13 05:11:02;;;;;;;3.83;1.83;;;;;;;;;;5075102;28;20257;-73
2023/08/13 05:13:27;;;;;;;4.70;1.88;;;;;;;;;;5075014;28;20261;-74
2023/08/13 05:15:52;;;;;;;4.50;1.75;;;;;;;;;;5075227;28;20028;-74
2023/08/13 05:18:18;;;;;;;3.20;1.80;;;;;;;;;;5075270;28;20028;-74
2023/08/13 05:20:43;;;;;;;3.20;2.00;;;;;;;;;;5075035;28;20336;-73
2023/08/13 05:23:08;;;;;;;4.60;2.00;;;;;;;;;;5074823;28;20032;-73
2023/08/13 05:25:38;;;;;;;3.63;1.90;;;;;;;;;;5074935;28;20265;-73
2023/08/13 05:28:04;;;;;;;2.42;1.88;;;;;;;;;;5074783;28;20021;-71
2023/08/13 05:30:29;;;;;;;2.92;1.85;;;;;;;;;;5074862;28;20556;-73
2023/08/13 05:32:54;;;;;;;3.83;2.00;;;;;;;;;;5074760;28;20097;-73
2023/08/13 05:35:21;;;;;;;4.20;2.10;;;;;;;;;;5074976;28;20094;-73
2023/08/13 05:37:46;;;;;;;3.97;1.95;;;;;;;;;;5056720;28;20111;-73
2023/08/13 05:40:11;;;;;;;5.38;2.35;;;;;;;;;;5074682;28;20052;-73
2023/08/13 05:42:37;;;;;;;3.17;2.10;;;;;;;;;;5074915;28;20028;-73
2023/08/13 05:45:03;;;;;;;4.33;1.67;;;;;;;;;;5073413;28;20024;-73
2023/08/13 05:47:28;;;;;;;4.15;2.03;;;;;;;;;;5074317;28;20300;-73
2023/08/13 05:49:53;;;;;;;2.95;2.00;;;;;;;;;;5074809;28;20088;-72
2023/08/13 05:52:19;;;;;;;3.53;2.05;;;;;;;;;;5073144;28;20115;-73
2023/08/13 05:54:46;;;;;;;2.70;1.67;;;;;;;;;;5072238;28;20028;-73
2023/08/13 05:57:12;;;;;;;3.22;1.90;;;;;;;;;;5073450;28;20111;-73
2023/08/13 05:59:38;;;;;;;2.53;1.87;;;;;;;;;;5054893;28;20111;-75
2023/08/13 06:02:03;;;;;;;5.53;1.80;;;;;;;;;;5074319;28;20261;-73
2023/08/13 06:04:29;;;;;;;3.30;1.70;;;;;;;;;;5073907;28;20484;-74
2023/08/13 06:06:54;;;;;;;3.67;1.75;;;;;;;;;;5054548;28;20585;-73
2023/08/13 06:09:20;;;;;;;3.13;1.73;;;;;;;;;;5073426;28;20017;-73
2023/08/13 06:11:45;;;;;;;2.72;1.73;;;;;;;;;;5073183;28;20036;-73
2023/08/13 06:14:10;;;;;;;3.17;2.03;;;;;;;;;;5073304;28;20454;-73
2023/08/13 06:16:36;;;;;;;7.10;1.70;;;;;;;;;;5072766;28;20104;-72
2023/08/13 06:19:01;;;;;;;3.75;1.70;;;;;;;;;;5073954;28;20112;-74
2023/08/13 06:21:26;;;;;;;5.90;1.83;;;;;;;;;;5055902;28;20021;-74
2023/08/13 06:23:52;;;;;;;3.63;2.20;;;;;;;;;;5073805;28;20028;-74
2023/08/13 06:26:17;;;;;;;3.88;2.22;;;;;;;;;;5055818;28;20673;-75
2023/08/13 06:28:42;;;;;;;3.17;2.08;;;;;;;;;;5073592;28;20024;-74
2023/08/13 06:31:08;;;;;;;3.35;1.67;;;;;;;;;;5073675;28;20074;-75
2023/08/13 06:33:34;;;;;;;3.83;1.77;;;;;;;;;;5073699;28;20052;-73
2023/08/13 06:35:59;;;;;;;4.03;1.70;;;;;;;;;;5055970;28;20063;-73
2023/08/13 06:38:26;;;;;;;5.63;1.90;;;;;;;;;;5073979;28;20024;-73
2023/08/13 06:40:51;;;;;;;3.10;1.92;;;;;;;;;;5073112;28;20127;-73
2023/08/13 06:43:17;;;;;;;3.72;2.08;;;;;;;;;;5055629;28;20060;-74
2023/08/13 06:45:42;;;;;;;3.00;1.70;;;;;;;;;;5073124;28;20062;-73
2023/08/13 06:48:08;;;;;;;4.20;1.77;;;;;;;;;;5073816;28;20036;-74
2023/08/13 06:50:34;;;;;;;3.90;1.90;;;;;;;;;;5072614;28;20273;-73
2023/08/13 06:52:59;;;;;;;4.28;1.83;;;;;;;;;;5074011;28;20024;-72
2023/08/13 06:55:25;;;;;;;4.38;1.70;;;;;;;;;;5073661;28;20418;-73
2023/08/13 06:57:51;;;;;;;5.05;1.80;;;;;;;;;;5055940;28;20119;-73
2023/08/13 07:00:19;;;;;;;4.93;1.65;;;;;;;;;;5073750;28;20104;-73
2023/08/13 07:02:44;;;;;;;3.88;1.73;;;;;;;;;;5073836;28;20430;-73
2023/08/13 07:05:11;;;;;;;4.35;1.80;;;;;;;;;;5073774;28;20020;-75
2023/08/13 07:07:37;;;;;;;3.15;1.90;;;;;;;;;;5055125;28;20021;-75
2023/08/13 07:10:04;;;;;;;2.63;1.83;;;;;;;;;;5073255;28;20081;-75
2023/08/13 07:12:29;;;;;;;4.60;1.70;;;;;;;;;;5072997;28;20021;-75
2023/08/13 07:14:55;;;;;;;3.47;1.85;;;;;;;;;;5053864;28;20028;-76
2023/08/13 07:17:20;;;;;;;3.28;1.85;;;;;;;;;;5072346;28;20027;-74
2023/08/13 07:19:46;;;;;;;2.75;1.75;;;;;;;;;;5055062;28;20382;-75
2023/08/13 07:22:13;;;;;;;5.30;1.90;;;;;;;;;;5072888;28;20038;-74
2023/08/13 07:24:38;;;;;;;2.85;1.60;;;;;;;;;;5073178;28;20253;-74
2023/08/13 07:27:04;;;;;;;3.83;2.00;;;;;;;;;;5055285;28;20027;-75
2023/08/13 07:29:29;;;;;;;4.40;2.00;;;;;;;;;;5055890;28;20593;-75
2023/08/13 07:31:54;;;;;;;3.60;1.90;;;;;;;;;;5054839;28;20082;-75
2023/08/13 07:34:20;;;;;;;3.60;1.80;;;;;;;;;;5072674;28;20032;-75
2023/08/13 07:36:46;;;;;;;3.35;1.63;;;;;;;;;;5055141;28;20048;-74
2023/08/13 07:39:12;;;;;;;5.30;2.00;;;;;;;;;;5073566;28;20027;-74
2023/08/13 07:41:37;;;;;;;3.88;1.85;;;;;;;;;;5073329;28;20027;-75
2023/08/13 07:44:03;;;;;;;3.42;2.03;;;;;;;;;;5055009;28;20103;-74
2023/08/13 07:46:28;;;;;;;2.78;2.08;;;;;;;;;;5072936;28;20021;-73
2023/08/13 07:48:53;;;;;;;2.87;1.93;;;;;;;;;;5073145;28;20116;-75
2023/08/13 07:51:20;;;;;;;2.63;1.90;;;;;;;;;;5073850;28;20612;-76
2023/08/13 07:53:45;;;;;;;3.28;2.00;;;;;;;;;;5077076;28;20039;-74
2023/08/13 07:56:10;;;;;;;4.13;2.00;;;;;;;;;;5076857;28;20029;-73
2023/08/13 07:58:37;;;;;;;3.00;2.10;;;;;;;;;;5059168;28;20480;-73
2023/08/13 08:01:02;;;;;;;3.42;2.33;;;;;;;;;;5058760;28;20052;-73
2023/08/13 08:03:28;;;;;;;4.03;2.40;;;;;;;;;;5076975;28;20472;-74
2023/08/13 08:05:53;;;;;;;4.75;2.00;;;;;;;;;;5076860;28;20249;-74
2023/08/13 08:08:18;;;;;;;2.78;2.20;;;;;;;;;;5076746;28;20036;-74
2023/08/13 08:10:44;;;;;;;2.65;1.88;;;;;;;;;;5076473;28;20073;-75
2023/08/13 08:13:09;;;;;;;3.28;2.00;;;;;;;;;;5076214;28;20554;-75
2023/08/13 08:15:34;;;;;;;3.05;2.03;;;;;;;;;;5076190;28;20105;-75
2023/08/13 08:18:00;;;;;;;5.07;1.90;;;;;;;;;;5058249;28;20032;-75
2023/08/13 08:20:25;;;;;;;3.57;2.00;;;;;;;;;;5076360;28;20471;-75
2023/08/13 08:22:51;;;;;;;2.75;2.20;;;;;;;;;;5075335;28;20322;-75
2023/08/13 08:25:16;;;;;;;2.30;1.90;;;;;;;;;;5058062;28;20028;-74
2023/08/13 08:27:41;;;;;;;4.43;2.00;;;;;;;;;;5076167;28;20493;-75
2023/08/13 08:30:07;;;;;;;3.43;2.10;;;;;;;;;;5057955;28;20253;-74
2023/08/13 08:32:32;;;;;;;2.90;2.00;;;;;;;;;;5075726;28;20261;-73
2023/08/13 08:34:58;;;;;;;2.83;1.90;;;;;;;;;;5075629;28;20108;-74
2023/08/13 08:37:23;;;;;;;3.83;1.70;;;;;;;;;;5076800;28;20106;-76
2023/08/13 08:39:48;;;;;;;2.67;1.70;;;;;;;;;;5077519;28;20102;-74
2023/08/13 08:42:13;;;;;;;2.40;1.80;;;;;;;;;;5057853;28;20086;-77
2023/08/13 08:44:44;;;;;;;3.90;1.80;;;;;;;;;;5058129;28;20394;-74
2023/08/13 08:47:10;;;;;;;1.98;1.63;;;;;;;;;;5076767;28;20093;-78
2023/08/13 08:49:36;;;;;;;2.83;1.70;;;;;;;;;;5059306;28;20471;-78
2023/08/13 08:52:01;;;;;;;3.83;1.80;;;;;;;;;;5080330;28;20454;-78
2023/08/13 08:54:27;;;;;;;2.75;1.75;;;;;;;;;;5077785;28;20024;-76
2023/08/13 08:56:52;;;;;;;3.30;1.88;;;;;;;;;;5079453;28;20543;-78
2023/08/13 08:59:18;;;;;;;2.05;1.65;;;;;;;;;;5076090;28;20100;-77
2023/08/13 09:01:43;;;;;;;3.38;1.92;;;;;;;;;;5075408;28;20059;-75
2023/08/13 09:04:08;;;;;;;2.67;1.83;;;;;;;;;;5075059;28;20371;-75
2023/08/13 09:06:52;;;;;;;2.88;1.80;;;;;;;;;;5076450;28;20039;-74
2023/08/13 09:09:18;;;;;;;5.28;1.75;;;;;;;;;;5079196;28;20118;-78
2023/08/13 09:11:43;;;;;;;2.97;1.83;;;;;;;;;;5077971;28;20521;-75
2023/08/13 09:14:09;;;;;;;5.70;2.10;;;;;;;;;;5073771;28;20115;-76
2023/08/13 09:16:36;;;;;;;1.80;1.58;;;;;;;;;;5073888;28;20694;-75
2023/08/13 09:19:01;;;;;;;3.25;1.80;;;;;;;;;;5073205;28;20082;-76
2023/08/13 09:21:28;;;;;;;3.20;1.75;;;;;;;;;;5072904;28;20489;-76
2023/08/13 09:23:55;;;;;;;2.17;1.77;;;;;;;;;;5074788;28;20483;-75
2023/08/13 09:26:24;;;;;;;2.67;1.70;;;;;;;;;;5075074;28;20069;-75
2023/08/13 09:28:50;;;;;;;3.05;1.90;;;;;;;;;;5075111;28;20028;-75
2023/08/13 09:31:16;;;;;;;2.80;1.88;;;;;;;;;;5057122;28;20097;-76
2023/08/13 09:33:44;;;;;;;2.30;1.88;;;;;;;;;;5074709;28;20024;-76
2023/08/13 09:36:09;;;;;;;3.92;1.88;;;;;;;;;;5074640;28;20043;-76
2023/08/13 09:38:35;;;;;;;2.47;1.90;;;;;;;;;;5074777;28;20024;-74
2023/08/13 09:41:00;;;;;;;3.53;1.80;;;;;;;;;;5073611;28;20190;-74
2023/08/13 09:43:28;;;;;;;3.93;1.80;;;;;;;;;;5074496;28;20021;-74
2023/08/13 09:45:55;;;;;;;2.65;1.55;;;;;;;;;;5074370;28;20732;-74
2023/08/13 09:48:21;;;;;;;2.00;1.60;;;;;;;;;;5056486;28;20024;-74
2023/08/13 09:50:48;;;;;;;1.88;1.60;;;;;;;;;;5074702;28;20369;-74
2023/08/13 09:53:14;;;;;;;2.25;1.60;;;;;;;;;;5056278;28;20046;-74
2023/08/13 09:55:43;;;;;;;1.90;1.60;;;;;;;;;;5073844;28;20028;-74
2023/08/13 09:58:12;;;;;;;2.88;1.40;;;;;;;;;;5074510;28;20024;-74
2023/08/13 10:00:38;;;;;;;2.58;1.80;;;;;;;;;;5073981;28;20033;-74
2023/08/13 10:03:03;;;;;;;2.17;1.63;;;;;;;;;;5056001;28;20024;-74
2023/08/13 10:05:29;;;;;;;1.83;1.63;;;;;;;;;;5074276;28;20016;-74
2023/08/13 10:07:55;;;;;;;2.50;1.80;;;;;;;;;;5074397;28;20032;-74
2023/08/13 10:10:22;;;;;;;2.00;1.77;;;;;;;;;;5073985;28;20021;-75
2023/08/13 10:12:47;;;;;;;2.13;1.70;;;;;;;;;;5073873;28;20025;-74
2023/08/13 10:15:12;;;;;;;2.40;1.73;;;;;;;;;;5054856;28;20023;-74
2023/08/13 10:17:38;;;;;;;2.97;1.98;;;;;;;;;;5055968;28;20047;-74
2023/08/13 10:20:05;;;;;;;5.28;1.90;;;;;;;;;;5073878;28;20031;-75
2023/08/13 10:22:35;;;;;;;2.00;1.80;;;;;;;;;;5073607;28;20423;-74
2023/08/13 10:25:01;;;;;;;2.90;1.73;;;;;;;;;;5073616;28;20024;-74
2023/08/13 10:27:28;;;;;;;2.00;1.80;;;;;;;;;;5056005;28;20388;-75
2023/08/13 10:30:10;;;;;;;2.47;1.70;;;;;;;;;;5055816;28;20025;-75
2023/08/13 10:33:03;;;;;;;2.25;1.40;;;;;;;;;;5073562;28;20399;-74
2023/08/13 10:35:31;;;;;;;1.92;1.70;;;;;;;;;;5070075;28;20032;-74
2023/08/13 10:37:59;;;;;;;2.20;1.70;;;;;;;;;;5055614;28;20475;-76
2023/08/13 10:40:25;;;;;;;2.38;1.77;;;;;;;;;;5073464;28;20031;-76
2023/08/13 10:42:52;;;;;;;1.85;1.60;;;;;;;;;;5073295;28;20050;-76
2023/08/13 10:45:23;;;;;;;1.92;1.60;;;;;;;;;;5073383;28;20124;-76
2023/08/13 10:47:49;;;;;;;3.80;1.80;;;;;;;;;;5073318;28;20032;-76
2023/08/13 10:50:17;;;;;;;3.85;1.77;;;;;;;;;;5073571;28;20043;-75
2023/08/13 10:52:46;;;;;;;2.35;1.70;;;;;;;;;;5055343;28;20021;-75
2023/08/13 10:55:11;;;;;;;1.70;1.52;;;;;;;;;;5073073;28;20036;-75
2023/08/13 10:57:39;;;;;;;5.55;1.60;;;;;;;;;;5073287;28;20024;-75
2023/08/13 11:00:05;;;;;;;2.13;1.60;;;;;;;;;;5073202;28;20055;-75
2023/08/13 11:02:31;;;;;;;2.70;1.80;;;;;;;;;;5072482;28;20116;-76
2023/08/13 11:04:57;;;;;;;1.52;1.40;;;;;;;;;;5055067;28;20490;-75
2023/08/13 11:07:23;;;;;;;3.20;1.88;;;;;;;;;;5055056;28;20043;-75
2023/08/13 11:09:49;;;;;;;4.60;3.30;;;;;;;;;;5054869;28;20087;-75
2023/08/13 11:12:15;;;;;;;3.85;1.77;;;;;;;;;;5072957;28;20029;-75
2023/08/13 11:14:41;;;;;;;2.67;1.73;;;;;;;;;;5072850;28;20119;-75
2023/08/13 11:17:07;;;;;;;1.83;1.60;;;;;;;;;;5073113;28;20027;-75
2023/08/13 11:19:33;;;;;;;1.77;1.67;;;;;;;;;;5072972;28;20029;-75
2023/08/13 11:21:59;;;;;;;3.50;1.67;;;;;;;;;;5072827;28;20035;-75
2023/08/13 11:24:24;;;;;;;3.45;1.55;;;;;;;;;;5073070;28;20556;-74
2023/08/13 11:26:51;;;;;;;2.53;1.67;;;;;;;;;;5072332;28;20020;-75
2023/08/13 11:29:21;;;;;;;1.98;1.55;;;;;;;;;;5071619;28;20029;-75
2023/08/13 11:31:47;;;;;;;2.38;1.50;;;;;;;;;;5072280;28;20024;-75
2023/08/13 11:34:14;;;;;;;2.00;1.52;;;;;;;;;;5072688;28;20020;-75
2023/08/13 11:36:40;;;;;;;4.90;1.58;;;;;;;;;;5072803;28;20058;-75
2023/08/13 11:39:05;;;;;;;3.22;1.80;;;;;;;;;;5072786;28;20032;-75
2023/08/13 11:41:30;;;;;;;2.67;1.58;;;;;;;;;;5072630;28;20021;-75
2023/08/13 11:43:56;;;;;;;1.67;1.50;;;;;;;;;;5072635;28;20069;-75
2023/08/13 11:46:22;;;;;;;2.72;1.52;;;;;;;;;;5072429;28;20285;-76
2023/08/13 11:48:53;;;;;;;3.53;1.80;;;;;;;;;;5072663;28;20107;-75
2023/08/13 11:51:22;;;;;;;2.17;1.50;;;;;;;;;;5072563;28;20609;-76
2023/08/13 11:53:49;;;;;;;2.45;1.60;;;;;;;;;;5054612;28;20035;-75
2023/08/13 11:56:15;;;;;;;3.50;2.30;;;;;;;;;;5072894;28;20029;-75
2023/08/13 11:58:41;;;;;;;2.85;1.77;;;;;;;;;;5072782;28;20528;-75
2023/08/13 12:01:14;;;;;;;2.90;1.40;;;;;;;;;;5072461;28;20111;-75
2023/08/13 12:03:44;;;;;;;3.57;1.50;;;;;;;;;;5072859;28;20021;-75
2023/08/13 12:06:11;;;;;;;1.58;1.35;;;;;;;;;;5072475;28;20345;-75
2023/08/13 12:08:37;;;;;;;2.88;1.60;;;;;;;;;;5072831;28;20036;-74
2023/08/13 12:11:02;;;;;;;1.60;1.33;;;;;;;;;;5054491;28;20016;-75
2023/08/13 12:13:28;;;;;;;2.03;1.60;;;;;;;;;;5072548;28;20035;-75
2023/08/13 12:15:54;;;;;;;1.88;1.50;;;;;;;;;;5072604;28;20112;-75
2023/08/13 12:18:19;;;;;;;5.75;1.50;;;;;;;;;;5072704;28;20071;-75
2023/08/13 12:20:45;;;;;;;1.55;1.45;;;;;;;;;;5072348;28;20017;-76
2023/08/13 12:23:10;;;;;;;4.30;1.60;;;;;;;;;;5072279;28;20468;-75
2023/08/13 12:25:36;;;;;;;4.30;1.50;;;;;;;;;;5072567;28;20023;-75
2023/08/13 12:28:02;;;;;;;3.25;1.50;;;;;;;;;;5072662;28;20024;-76
2023/08/13 12:30:28;;;;;;;9.32;1.70;;;;;;;;;;5072565;28;20024;-76
2023/08/13 12:32:54;;;;;;;1.50;1.40;;;;;;;;;;5072099;28;20031;-75
2023/08/13 12:35:21;;;;;;;2.70;1.80;;;;;;;;;;5072471;28;20047;-75
2023/08/13 12:37:47;;;;;;;1.80;1.60;;;;;;;;;;5072297;28;20106;-75
2023/08/13 12:40:12;;;;;;;2.53;1.90;;;;;;;;;;5075668;28;20021;-74
2023/08/13 12:42:38;;;;;;;1.80;1.70;;;;;;;;;;5075627;28;20029;-75
2023/08/13 12:45:05;;;;;;;2.08;1.60;;;;;;;;;;5075658;28;20020;-75
2023/08/13 12:47:31;;;;;;;1.50;1.40;;;;;;;;;;5075874;28;20024;-76
2023/08/13 12:49:56;;;;;;;2.17;1.60;;;;;;;;;;5075869;28;20029;-74
2023/08/13 12:52:22;;;;;;;2.60;1.58;;;;;;;;;;5075862;28;20441;-76
2023/08/13 12:54:47;;;;;;;2.27;1.50;;;;;;;;;;5057848;28;20111;-75
2023/08/13 12:57:12;;;;;;;5.93;1.52;;;;;;;;;;5057574;28;20265;-76
2023/08/13 12:59:37;;;;;;;3.03;1.50;;;;;;;;;;5075436;28;20028;-75
2023/08/13 13:02:03;;;;;;;2.95;1.45;;;;;;;;;;5075363;28;20273;-76
2023/08/13 13:04:29;;;;;;;1.75;1.60;;;;;;;;;;5075304;28;20016;-75
2023/08/13 13:06:54;;;;;;;2.00;1.55;;;;;;;;;;5057384;28;20028;-75
2023/08/13 13:09:19;;;;;;;1.55;1.45;;;;;;;;;;5075643;28;20020;-75
2023/08/13 13:11:44;;;;;;;1.63;1.50;;;;;;;;;;5075177;28;20479;-75
2023/08/13 13:14:10;;;;;;;2.13;1.60;;;;;;;;;;5075147;28;20020;-75
2023/08/13 13:16:35;;;;;;;1.70;1.60;;;;;;;;;;5057071;28;20356;-75
2023/08/13 13:19:00;;;;;;;2.37;1.57;;;;;;;;;;5075057;28;20162;-75
2023/08/13 13:21:26;;;;;;;2.00;1.40;;;;;;;;;;5074943;28;20307;-75
2023/08/13 13:23:52;;;;;;;2.42;1.60;;;;;;;;;;5074793;28;20044;-75
2023/08/13 13:26:17;;;;;;;1.90;1.70;;;;;;;;;;5075146;28;20468;-76
2023/08/13 13:28:42;;;;;;;3.28;1.55;;;;;;;;;;5075203;28;20056;-75
2023/08/13 13:31:07;;;;;;;2.50;1.53;;;;;;;;;;5075132;28;20031;-76
2023/08/13 13:33:33;;;;;;;1.97;1.63;;;;;;;;;;5074833;28;20268;-76
2023/08/13 13:35:58;;;;;;;1.42;1.30;;;;;;;;;;5056620;28;20277;-75
2023/08/13 13:38:24;;;;;;;4.13;1.73;;;;;;;;;;5074373;28;20089;-75
2023/08/13 13:40:49;;;;;;;1.65;1.55;;;;;;;;;;5074635;28;20017;-76
2023/08/13 13:43:14;;;;;;;2.67;1.63;;;;;;;;;;5074613;28;20031;-75
2023/08/13 13:45:39;;;;;;;2.85;1.60;;;;;;;;;;5056903;28;20348;-75
2023/08/13 13:48:05;;;;;;;2.22;1.40;;;;;;;;;;5074538;28;20073;-75
2023/08/13 13:50:30;;;;;;;3.38;1.58;;;;;;;;;;5056630;28;20051;-76
2023/08/13 13:52:56;;;;;;;3.53;1.52;;;;;;;;;;5074215;28;20036;-76
2023/08/13 13:55:22;;;;;;;3.80;1.60;;;;;;;;;;5056408;28;20029;-74
2023/08/13 13:57:47;;;;;;;1.85;1.40;;;;;;;;;;5074182;28;20024;-76
2023/08/13 14:00:13;;;;;;;2.20;1.60;;;;;;;;;;5074261;28;20547;-75
2023/08/13 14:02:39;;;;;;;2.13;1.50;;;;;;;;;;5075013;28;20025;-74
2023/08/13 14:05:06;;;;;;;4.00;1.55;;;;;;;;;;5073885;28;20135;-75
2023/08/13 14:07:31;;;;;;;1.90;1.48;;;;;;;;;;5056304;28;20467;-74
2023/08/13 14:09:57;;;;;;;5.07;1.60;;;;;;;;;;5074077;28;20103;-74
2023/08/13 14:12:22;;;;;;;2.67;1.50;;;;;;;;;;5073925;28;20024;-76
2023/08/13 14:14:48;;;;;;;1.70;1.50;;;;;;;;;;5074190;28;20024;-73
2023/08/13 14:17:13;;;;;;;2.60;1.70;;;;;;;;;;5074725;28;20025;-74
2023/08/13 14:19:42;;;;;;;5.35;1.65;;;;;;;;;;5073750;28;20074;-73
2023/08/13 14:22:07;;;;;;;2.05;1.50;;;;;;;;;;5074066;28;20035;-73
2023/08/13 14:24:33;;;;;;;2.17;1.60;;;;;;;;;;5073805;28;20104;-75
2023/08/13 14:26:58;;;;;;;6.47;1.80;;;;;;;;;;5073675;28;20028;-75
2023/08/13 14:29:23;;;;;;;4.63;1.63;;;;;;;;;;5073699;28;20028;-75
2023/08/13 14:31:49;;;;;;;1.77;1.60;;;;;;;;;;5073807;28;20253;-74
2023/08/13 14:34:14;;;;;;;2.80;1.90;;;;;;;;;;5073758;28;20264;-72
2023/08/13 14:36:39;;;;;;;2.03;1.65;;;;;;;;;;5074039;28;20024;-72